createdAt,value
2023-02-22T00:02:13.082Z,1009.24
2023-02-22T00:05:20.795Z,1009.24
2023-02-22T00:08:28.258Z,1009.24
2023-02-22T00:11:35.941Z,1009.24
2023-02-22T00:14:43.801Z,1009.23
2023-02-22T00:17:50.873Z,1009.21
2023-02-22T00:20:58.718Z,1009.14
2023-02-22T00:24:06.297Z,1009.23
2023-02-22T00:27:13.334Z,1009.20
2023-02-22T00:30:21.260Z,1009.20
2023-02-22T00:33:28.534Z,1009.14
2023-02-22T00:36:35.864Z,1009.18
2023-02-22T00:39:43.784Z,1009.13
2023-02-22T00:42:51.037Z,1009.08
2023-02-22T00:45:58.566Z,1009.12
2023-02-22T00:49:06.175Z,1009.07
2023-02-22T00:52:13.622Z,1009.03
2023-02-22T00:55:20.880Z,1008.99
2023-02-22T00:58:28.306Z,1008.96
2023-02-22T01:01:36.129Z,1008.95
2023-02-22T01:04:43.462Z,1008.93
2023-02-22T01:07:50.680Z,1008.94
2023-02-22T01:10:58.808Z,1008.89
2023-02-22T01:14:06.141Z,1008.84
2023-02-22T01:17:13.331Z,1008.90
2023-02-22T01:20:20.865Z,1008.92
2023-02-22T01:23:28.224Z,1008.89
2023-02-22T01:26:35.371Z,1008.84
2023-02-22T01:29:43.094Z,1008.74
2023-02-22T01:32:51.993Z,1008.80
2023-02-22T01:35:59.653Z,1008.72
2023-02-22T01:39:07.174Z,1008.66
2023-02-22T01:42:14.504Z,1008.60
2023-02-22T01:45:21.842Z,1008.58
2023-02-22T01:48:29.471Z,1008.61
2023-02-22T01:51:36.848Z,1008.58
2023-02-22T01:54:44.373Z,1008.53
2023-02-22T01:57:51.763Z,1008.58
2023-02-22T02:00:59.471Z,1008.43
2023-02-22T02:04:06.884Z,1008.56
2023-02-22T02:07:14.054Z,1008.52
2023-02-22T02:10:21.727Z,1008.52
2023-02-22T02:13:29.086Z,1008.46
2023-02-22T02:16:36.439Z,1008.42
2023-02-22T02:19:44.098Z,1008.39
2023-02-22T02:22:51.053Z,1008.38
2023-02-22T02:25:58.736Z,1008.42
2023-02-22T02:29:06.722Z,1008.32
2023-02-22T02:32:13.816Z,1008.36
2023-02-22T02:35:21.655Z,1008.33
2023-02-22T02:38:28.883Z,1008.43
2023-02-22T02:41:35.809Z,1008.35
2023-02-22T02:44:43.791Z,1008.33
2023-02-22T02:47:50.855Z,1008.31
2023-02-22T02:50:57.663Z,1008.36
2023-02-22T02:54:04.964Z,1008.25
2023-02-22T02:57:12.644Z,1008.29
2023-02-22T03:00:19.514Z,1008.28
2023-02-22T03:03:26.169Z,1008.23
2023-02-22T03:06:33.298Z,1008.26
2023-02-22T03:09:40.682Z,1008.21
2023-02-22T03:12:48.071Z,1008.19
2023-02-22T03:15:55.336Z,1008.24
2023-02-22T03:19:02.214Z,1008.22
2023-02-22T03:22:09.889Z,1008.18
2023-02-22T03:25:17.056Z,1008.19
2023-02-22T03:28:24.076Z,1008.19
2023-02-22T03:31:31.689Z,1008.20
2023-02-22T03:34:39.394Z,1008.14
2023-02-22T03:37:45.852Z,1008.21
2023-02-22T03:40:53.343Z,1008.19
2023-02-22T03:44:00.877Z,1008.22
2023-02-22T03:47:08.380Z,1008.21
2023-02-22T03:50:15.593Z,1008.14
2023-02-22T03:53:22.836Z,1008.16
2023-02-22T03:56:29.469Z,1008.19
2023-02-22T03:59:35.883Z,1008.14
2023-02-22T04:02:43.721Z,1008.02
2023-02-22T04:05:50.514Z,1008.14
2023-02-22T04:08:57.590Z,1008.06
2023-02-22T04:12:05.177Z,1008.03
2023-02-22T04:15:12.129Z,1008.04
2023-02-22T04:18:19.314Z,1008.07
2023-02-22T04:21:27.098Z,1008.06
2023-02-22T04:24:33.758Z,1008.08
2023-02-22T04:27:41.369Z,1008.03
2023-02-22T04:30:48.490Z,1007.99
2023-02-22T04:33:55.853Z,1008.00
2023-02-22T04:37:03.207Z,1007.98
2023-02-22T04:40:10.596Z,1007.99
2023-02-22T04:43:17.546Z,1008.02
2023-02-22T04:46:24.391Z,1007.92
2023-02-22T04:49:30.418Z,1007.93
2023-02-22T04:52:37.565Z,1007.94
2023-02-22T04:55:44.167Z,1007.98
2023-02-22T04:58:51.306Z,1007.87
2023-02-22T05:01:57.951Z,1007.88
2023-02-22T05:05:05.006Z,1007.83
2023-02-22T05:08:12.312Z,1007.83
2023-02-22T05:11:20.000Z,1007.83
2023-02-22T05:14:27.046Z,1007.85
2023-02-22T05:17:34.699Z,1007.87
2023-02-22T05:20:41.387Z,1007.86
2023-02-22T05:23:48.501Z,1007.78
2023-02-22T05:26:56.089Z,1007.82
2023-02-22T05:30:03.851Z,1007.77
2023-02-22T05:33:10.746Z,1007.77
2023-02-22T05:36:18.371Z,1007.75
2023-02-22T05:39:24.743Z,1007.66
2023-02-22T05:42:32.235Z,1007.74
2023-02-22T05:45:39.799Z,1007.76
2023-02-22T05:48:47.086Z,1007.74
2023-02-22T05:51:54.646Z,1007.75
2023-02-22T05:55:01.955Z,1007.71
2023-02-22T05:58:08.844Z,1007.78
2023-02-22T06:01:17.814Z,1007.75
2023-02-22T06:04:25.648Z,1007.69
2023-02-22T06:07:33.095Z,1007.69
2023-02-22T06:10:40.067Z,1007.65
2023-02-22T06:13:47.206Z,1007.72
2023-02-22T06:16:54.898Z,1007.73
2023-02-22T06:20:02.287Z,1007.74
2023-02-22T06:23:08.741Z,1007.64
2023-02-22T06:26:16.634Z,1007.67
2023-02-22T06:29:23.901Z,1007.65
2023-02-22T06:32:30.470Z,1007.56
2023-02-22T06:35:38.077Z,1007.58
2023-02-22T06:38:44.909Z,1007.55
2023-02-22T06:41:52.232Z,1007.52
2023-02-22T06:45:00.129Z,1007.56
2023-02-22T06:48:06.888Z,1007.57
2023-02-22T06:51:14.540Z,1007.49
2023-02-22T06:54:22.330Z,1007.51
2023-02-22T06:57:28.961Z,1007.53
2023-02-22T07:00:36.895Z,1007.42
2023-02-22T07:03:44.714Z,1007.43
2023-02-22T07:06:52.233Z,1007.39
2023-02-22T07:09:59.080Z,1007.36
2023-02-22T07:13:06.364Z,1007.39
2023-02-22T07:16:13.902Z,1007.44
2023-02-22T07:19:21.310Z,1007.41
2023-02-22T07:22:28.140Z,1007.56
2023-02-22T07:25:35.809Z,1007.53
2023-02-22T07:28:43.074Z,1007.48
2023-02-22T07:31:50.505Z,1007.42
2023-02-22T07:34:57.750Z,1007.45
2023-02-22T07:38:03.505Z,1007.43
2023-02-22T07:41:11.269Z,1007.48
2023-02-22T07:44:18.766Z,1007.43
2023-02-22T07:47:25.440Z,1007.39
2023-02-22T07:50:33.099Z,1007.37
2023-02-22T07:53:39.654Z,1007.33
2023-02-22T07:56:46.417Z,1007.40
2023-02-22T07:59:53.710Z,1007.38
2023-02-22T08:03:00.985Z,1007.40
2023-02-22T08:06:08.779Z,1007.41
2023-02-22T08:09:15.898Z,1007.34
2023-02-22T08:12:22.270Z,1007.35
2023-02-22T08:15:30.074Z,1007.37
2023-02-22T08:18:37.182Z,1007.39
2023-02-22T08:21:44.192Z,1007.43
2023-02-22T08:24:51.712Z,1007.35
2023-02-22T08:27:58.565Z,1007.41
2023-02-22T08:31:05.882Z,1007.35
2023-02-22T08:34:13.562Z,1007.31
2023-02-22T08:37:20.924Z,1007.27
2023-02-22T08:40:28.166Z,1007.31
2023-02-22T08:43:35.859Z,1007.28
2023-02-22T08:46:43.211Z,1007.26
2023-02-22T08:49:50.649Z,1007.28
2023-02-22T08:52:57.520Z,1007.20
2023-02-22T08:56:04.464Z,1007.18
2023-02-22T08:59:11.715Z,1007.12
2023-02-22T09:02:19.198Z,1007.11
2023-02-22T09:05:27.128Z,1007.08
2023-02-22T09:08:33.939Z,1007.05
2023-02-22T09:11:41.664Z,1007.03
2023-02-22T09:14:49.610Z,1007.11
2023-02-22T09:17:56.716Z,1007.12
2023-02-22T09:21:04.616Z,1007.00
2023-02-22T09:24:11.769Z,1006.94
2023-02-22T09:27:18.255Z,1006.93
2023-02-22T09:30:26.067Z,1006.90
2023-02-22T09:33:33.139Z,1006.90
2023-02-22T09:36:40.146Z,1006.84
2023-02-22T09:39:48.252Z,1006.77
2023-02-22T09:42:55.502Z,1006.73
2023-02-22T09:46:02.975Z,1006.73
2023-02-22T09:49:10.772Z,1006.73
2023-02-22T09:52:18.156Z,1006.74
2023-02-22T09:55:25.607Z,1006.63
2023-02-22T09:58:33.527Z,1006.66
2023-02-22T10:01:40.854Z,1006.69
2023-02-22T10:04:48.210Z,1006.59
2023-02-22T10:07:54.997Z,1006.55
2023-02-22T10:11:02.253Z,1006.49
2023-02-22T10:14:08.758Z,1006.56
2023-02-22T10:17:16.129Z,1006.44
2023-02-22T10:20:24.108Z,1006.47
2023-02-22T10:23:31.129Z,1006.44
2023-02-22T10:26:38.395Z,1006.37
2023-02-22T10:29:45.884Z,1006.23
2023-02-22T10:32:53.061Z,1006.26
2023-02-22T10:36:01.530Z,1006.27
2023-02-22T10:39:08.740Z,1006.23
2023-02-22T10:42:16.770Z,1006.28
2023-02-22T10:45:24.545Z,1006.25
2023-02-22T10:48:31.622Z,1006.20
2023-02-22T10:51:39.634Z,1006.17
2023-02-22T10:54:47.434Z,1006.22
2023-02-22T10:57:54.645Z,1006.19
2023-02-22T11:01:02.411Z,1006.17
2023-02-22T11:04:09.991Z,1006.21
2023-02-22T11:07:17.526Z,1006.14
2023-02-22T11:10:25.410Z,1006.19
2023-02-22T11:13:32.758Z,1006.08
2023-02-22T11:16:40.090Z,1006.04
2023-02-22T11:19:47.518Z,1006.06
2023-02-22T11:22:55.437Z,1006.02
2023-02-22T11:26:02.881Z,1006.03
2023-02-22T11:29:10.219Z,1006.08
2023-02-22T11:32:18.095Z,1005.97
2023-02-22T11:35:25.265Z,1005.96
2023-02-22T11:38:33.043Z,1005.84
2023-02-22T11:41:40.612Z,1005.74
2023-02-22T11:44:47.794Z,1005.70
2023-02-22T11:47:55.534Z,1005.73
2023-02-22T11:51:03.072Z,1005.63
2023-02-22T11:54:10.503Z,1005.61
2023-02-22T11:57:18.044Z,1005.60
2023-02-22T12:00:25.618Z,1005.47
2023-02-22T12:03:33.472Z,1005.37
2023-02-22T12:06:41.366Z,1005.36
2023-02-22T12:09:48.911Z,1005.29
2023-02-22T12:12:56.422Z,1005.41
2023-02-22T12:16:03.995Z,1005.37
2023-02-22T12:19:11.767Z,1005.31
2023-02-22T12:22:19.222Z,1005.30
2023-02-22T12:25:26.769Z,1005.23
2023-02-22T12:28:34.743Z,1005.24
2023-02-22T12:31:41.954Z,1005.24
2023-02-22T12:34:50.071Z,1005.21
2023-02-22T12:37:58.021Z,1005.14
2023-02-22T12:41:05.104Z,1005.07
2023-02-22T12:44:12.879Z,1005.14
2023-02-22T12:47:20.354Z,1005.19
2023-02-22T12:50:27.805Z,1005.04
2023-02-22T12:53:35.647Z,1005.00
2023-02-22T12:56:43.106Z,1004.99
2023-02-22T12:59:50.579Z,1004.97
2023-02-22T13:02:58.079Z,1004.91
2023-02-22T13:06:05.642Z,1004.95
2023-02-22T13:09:13.087Z,1004.81
2023-02-22T13:12:20.213Z,1004.74
2023-02-22T13:15:28.220Z,1004.70
2023-02-22T13:18:36.042Z,1004.72
2023-02-22T13:21:43.335Z,1004.64
2023-02-22T13:24:51.288Z,1004.66
2023-02-22T13:27:59.053Z,1004.60
2023-02-22T13:31:06.196Z,1004.59
2023-02-22T13:34:14.125Z,1004.57
2023-02-22T13:37:21.635Z,1004.43
2023-02-22T13:40:29.126Z,1004.43
2023-02-22T13:43:36.691Z,1004.46
2023-02-22T13:46:44.603Z,1004.37
2023-02-22T13:49:52.134Z,1004.35
2023-02-22T13:52:59.938Z,1004.29
2023-02-22T13:56:07.297Z,1004.27
2023-02-22T13:59:14.555Z,1004.28
2023-02-22T14:02:22.624Z,1004.26
2023-02-22T14:05:30.668Z,1004.26
2023-02-22T14:08:37.643Z,1004.23
2023-02-22T14:11:45.216Z,1004.30
2023-02-22T14:14:52.506Z,1004.26
2023-02-22T14:17:59.998Z,1004.24
2023-02-22T14:21:07.637Z,1004.21
2023-02-22T14:24:15.284Z,1004.14
2023-02-22T14:27:23.061Z,1004.11
2023-02-22T14:30:30.675Z,1004.15
2023-02-22T14:33:41.262Z,1004.14
2023-02-22T14:36:39.402Z,1004.20
2023-02-22T14:39:46.844Z,1004.21
2023-02-22T14:42:54.764Z,1004.12
2023-02-22T14:46:02.017Z,1004.07
2023-02-22T14:49:09.716Z,1004.13
2023-02-22T14:52:17.613Z,1004.09
2023-02-22T14:55:24.721Z,1004.09
2023-02-22T14:58:32.596Z,1004.04
2023-02-22T15:01:52.794Z,1004.09
2023-02-22T15:04:44.694Z,1004.03
2023-02-22T15:07:52.188Z,1004.02
2023-02-22T15:10:59.424Z,1004.04
2023-02-22T15:14:14.628Z,1004.07
2023-02-22T15:17:12.131Z,1003.95
2023-02-22T15:20:19.594Z,1003.95
2023-02-22T15:23:27.173Z,1003.93
2023-02-22T15:26:34.723Z,1003.85
2023-02-22T15:29:42.739Z,1003.93
2023-02-22T15:33:04.967Z,1003.88
2023-02-22T15:35:55.284Z,1003.78
2023-02-22T15:39:03.193Z,1003.89
2023-02-22T15:42:10.301Z,1003.87
2023-02-22T15:45:17.854Z,1003.87
2023-02-22T15:48:26.098Z,1003.87
2023-02-22T15:51:33.402Z,1003.92
2023-02-22T15:54:41.448Z,1003.93
2023-02-22T15:57:49.377Z,1003.93
2023-02-22T16:00:56.608Z,1003.91
2023-02-22T16:04:04.607Z,1003.92
2023-02-22T16:07:12.403Z,1003.97
2023-02-22T16:10:19.518Z,1003.94
2023-02-22T16:13:32.427Z,1003.92
2023-02-22T16:16:29.590Z,1003.99
2023-02-22T16:19:37.100Z,1004.01
2023-02-22T16:22:44.607Z,1004.08
2023-02-22T16:25:52.395Z,1004.03
2023-02-22T16:29:00.184Z,1004.00
2023-02-22T16:32:07.546Z,1004.00
2023-02-22T16:35:15.551Z,1003.95
2023-02-22T16:38:23.636Z,1004.00
2023-02-22T16:41:30.811Z,1004.07
2023-02-22T16:44:38.843Z,1004.03
2023-02-22T16:47:46.788Z,1004.02
2023-02-22T16:50:53.968Z,1004.07
2023-02-22T16:54:01.726Z,1004.02
2023-02-22T16:57:09.520Z,1004.02
2023-02-22T17:00:16.517Z,1004.05
2023-02-22T17:03:24.201Z,1003.98
2023-02-22T17:06:31.690Z,1004.03
2023-02-22T17:09:39.220Z,1004.05
2023-02-22T17:12:46.876Z,1004.11
2023-02-22T17:15:54.407Z,1004.13
2023-02-22T17:19:01.940Z,1004.14
2023-02-22T17:22:09.491Z,1004.16
2023-02-22T17:25:17.040Z,1004.17
2023-02-22T17:28:24.293Z,1004.18
2023-02-22T17:31:31.841Z,1004.19
2023-02-22T17:34:39.472Z,1004.25
2023-02-22T17:37:47.026Z,1004.25
2023-02-22T17:40:55.270Z,1004.25
2023-02-22T17:44:02.758Z,1004.32
2023-02-22T17:47:10.246Z,1004.26
2023-02-22T17:50:18.404Z,1004.17
2023-02-22T17:53:25.577Z,1004.29
2023-02-22T17:56:33.420Z,1004.28
2023-02-22T17:59:40.926Z,1004.33
2023-02-22T18:02:48.494Z,1004.31
2023-02-22T18:05:56.411Z,1004.30
2023-02-22T18:09:04.002Z,1004.26
2023-02-22T18:12:11.665Z,1004.34
2023-02-22T18:15:20.155Z,1004.34
2023-02-22T18:18:27.170Z,1004.41
2023-02-22T18:21:35.027Z,1004.41
2023-02-22T18:24:42.581Z,1004.42
2023-02-22T18:27:49.917Z,1004.42
2023-02-22T18:30:57.079Z,1004.43
2023-02-22T18:34:04.411Z,1004.46
2023-02-22T18:37:11.851Z,1004.54
2023-02-22T18:40:19.198Z,1004.44
2023-02-22T18:43:27.040Z,1004.48
2023-02-22T18:46:34.580Z,1004.39
2023-02-22T18:49:41.925Z,1004.41
2023-02-22T18:52:49.658Z,1004.45
2023-02-22T18:55:56.805Z,1004.44
2023-02-22T18:59:04.508Z,1004.41
2023-02-22T19:02:12.219Z,1004.41
2023-02-22T19:05:19.088Z,1004.43
2023-02-22T19:08:26.510Z,1004.41
2023-02-22T19:11:34.124Z,1004.42
2023-02-22T19:14:41.102Z,1004.41
2023-02-22T19:17:48.741Z,1004.34
2023-02-22T19:20:56.185Z,1004.37
2023-02-22T19:24:03.912Z,1004.46
2023-02-22T19:27:11.600Z,1004.35
2023-02-22T19:30:18.647Z,1004.40
2023-02-22T19:33:26.195Z,1004.34
2023-02-22T19:36:33.772Z,1004.33
2023-02-22T19:39:41.477Z,1004.32
2023-02-22T19:42:50.116Z,1004.34
2023-02-22T19:45:57.478Z,1004.37
2023-02-22T19:49:05.338Z,1004.31
2023-02-22T19:52:13.246Z,1004.29
2023-02-22T19:55:20.312Z,1004.34
2023-02-22T19:58:28.171Z,1004.33
2023-02-22T20:01:35.998Z,1004.29
2023-02-22T20:04:43.651Z,1004.28
2023-02-22T20:07:51.011Z,1004.31
2023-02-22T20:10:59.926Z,1004.33
2023-02-22T20:14:07.401Z,1004.35
2023-02-22T20:17:15.029Z,1004.36
2023-02-22T20:20:21.981Z,1004.34
2023-02-22T20:23:29.949Z,1004.36
2023-02-22T20:26:37.671Z,1004.35
2023-02-22T20:29:45.441Z,1004.36
2023-02-22T20:32:53.548Z,1004.33
2023-02-22T20:36:01.930Z,1004.39
2023-02-22T20:39:09.310Z,1004.43
2023-02-22T20:42:17.173Z,1004.44
2023-02-22T20:45:25.972Z,1004.46
2023-02-22T20:48:33.765Z,1004.48
2023-02-22T20:51:42.353Z,1004.46
2023-02-22T20:54:50.752Z,1004.47
2023-02-22T20:57:58.165Z,1004.42
2023-02-22T21:01:05.652Z,1004.44
2023-02-22T21:04:13.545Z,1004.47
2023-02-22T21:07:21.818Z,1004.44
2023-02-22T21:10:28.918Z,1004.42
2023-02-22T21:13:36.330Z,1004.50
2023-02-22T21:16:43.420Z,1004.46
2023-02-22T21:19:50.310Z,1004.46
2023-02-22T21:22:58.026Z,1004.46
2023-02-22T21:26:05.273Z,1004.41
2023-02-22T21:29:12.380Z,1004.37
2023-02-22T21:32:19.655Z,1004.40
2023-02-22T21:35:26.796Z,1004.34
2023-02-22T21:38:34.280Z,1004.32
2023-02-22T21:41:41.600Z,1004.31
2023-02-22T21:44:49.050Z,1004.32
2023-02-22T21:47:56.801Z,1004.30
2023-02-22T21:51:03.944Z,1004.25
2023-02-22T21:54:11.905Z,1004.19
2023-02-22T21:57:19.604Z,1004.25
2023-02-22T22:00:26.545Z,1004.25
2023-02-22T22:03:33.869Z,1004.28
2023-02-22T22:06:41.308Z,1004.25
2023-02-22T22:09:48.326Z,1004.23
2023-02-22T22:12:56.205Z,1004.17
2023-02-22T22:16:03.608Z,1004.17
2023-02-22T22:19:11.037Z,1004.15
2023-02-22T22:22:18.683Z,1004.16
2023-02-22T22:25:26.192Z,1004.18
2023-02-22T22:28:33.651Z,1004.26
2023-02-22T22:31:41.416Z,1004.18
2023-02-22T22:34:48.883Z,1004.14
2023-02-22T22:37:56.282Z,1004.13
2023-02-22T22:41:03.650Z,1004.12
2023-02-22T22:44:11.423Z,1004.18
2023-02-22T22:47:18.881Z,1004.18
2023-02-22T22:50:26.198Z,1004.19
2023-02-22T22:53:33.915Z,1004.22
2023-02-22T22:56:41.153Z,1004.22
2023-02-22T22:59:48.591Z,1004.21
2023-02-22T23:02:56.414Z,1004.23
2023-02-22T23:06:03.376Z,1004.17
2023-02-22T23:09:10.981Z,1004.17
2023-02-22T23:12:18.750Z,1004.21
2023-02-22T23:15:25.845Z,1004.16
2023-02-22T23:18:33.659Z,1004.23
2023-02-22T23:21:41.241Z,1004.18
2023-02-22T23:24:48.178Z,1004.21
2023-02-22T23:27:55.514Z,1004.19
2023-02-22T23:31:02.964Z,1004.25
2023-02-22T23:34:10.256Z,1004.29
2023-02-22T23:37:17.821Z,1004.23
2023-02-22T23:40:25.363Z,1004.22
2023-02-22T23:43:32.686Z,1004.27
2023-02-22T23:46:39.927Z,1004.28
2023-02-22T23:49:47.499Z,1004.29
2023-02-22T23:52:54.747Z,1004.29
2023-02-22T23:56:02.020Z,1004.31
2023-02-22T23:59:09.890Z,1004.36
